sensor_id;sensor_type;location;lat;lon;timestamp;temperature;humidity
6178;DHT22;3122;48.208;11.174;2024-03-02T00:00:53;5.50;1.00
6178;DHT22;3122;48.208;11.174;2024-03-02T00:05:54;5.50;1.00
6178;DHT22;3122;48.208;11.174;2024-03-02T00:10:59;5.50;1.00
6178;DHT22;3122;48.208;11.174;2024-03-02T00:16:00;5.40;1.00
6178;DHT22;3122;48.208;11.174;2024-03-02T00:21:01;5.40;1.00
6178;DHT22;3122;48.208;11.174;2024-03-02T00:26:03;5.40;1.00
6178;DHT22;3122;48.208;11.174;2024-03-02T00:31:08;5.40;1.00
6178;DHT22;3122;48.208;11.174;2024-03-02T00:36:10;5.30;1.00
6178;DHT22;3122;48.208;11.174;2024-03-02T00:41:22;5.30;1.00
6178;DHT22;3122;48.208;11.174;2024-03-02T00:46:23;5.30;1.00
6178;DHT22;3122;48.208;11.174;2024-03-02T00:51:26;5.30;1.00
6178;DHT22;3122;48.208;11.174;2024-03-02T00:56:27;5.30;1.00
6178;DHT22;3122;48.208;11.174;2024-03-02T01:01:28;5.20;1.00
6178;DHT22;3122;48.208;11.174;2024-03-02T01:06:28;5.30;1.00
6178;DHT22;3122;48.208;11.174;2024-03-02T01:11:29;5.20;1.00
6178;DHT22;3122;48.208;11.174;2024-03-02T01:16:30;5.20;1.00
6178;DHT22;3122;48.208;11.174;2024-03-02T01:21:30;5.20;1.00
6178;DHT22;3122;48.208;11.174;2024-03-02T01:26:31;5.20;1.00
6178;DHT22;3122;48.208;11.174;2024-03-02T01:31:32;5.20;1.00
6178;DHT22;3122;48.208;11.174;2024-03-02T01:36:32;5.10;1.00
6178;DHT22;3122;48.208;11.174;2024-03-02T01:41:33;5.20;1.00
6178;DHT22;3122;48.208;11.174;2024-03-02T01:46:34;5.20;1.00
6178;DHT22;3122;48.208;11.174;2024-03-02T01:51:35;5.20;1.00
6178;DHT22;3122;48.208;11.174;2024-03-02T01:56:36;5.10;1.00
6178;DHT22;3122;48.208;11.174;2024-03-02T02:01:36;5.20;1.00
6178;DHT22;3122;48.208;11.174;2024-03-02T02:06:37;5.10;1.00
6178;DHT22;3122;48.208;11.174;2024-03-02T02:11:37;5.10;1.00
6178;DHT22;3122;48.208;11.174;2024-03-02T02:16:38;5.10;1.00
6178;DHT22;3122;48.208;11.174;2024-03-02T02:21:42;5.00;1.00
6178;DHT22;3122;48.208;11.174;2024-03-02T02:26:43;5.00;1.00
6178;DHT22;3122;48.208;11.174;2024-03-02T02:31:43;5.00;1.00
6178;DHT22;3122;48.208;11.174;2024-03-02T02:36:44;5.00;1.00
6178;DHT22;3122;48.208;11.174;2024-03-02T02:41:45;5.00;1.00
6178;DHT22;3122;48.208;11.174;2024-03-02T02:46:45;5.00;1.00
6178;DHT22;3122;48.208;11.174;2024-03-02T02:51:46;5.00;1.00
6178;DHT22;3122;48.208;11.174;2024-03-02T02:56:46;5.10;1.00
6178;DHT22;3122;48.208;11.174;2024-03-02T03:01:47;5.10;1.00
6178;DHT22;3122;48.208;11.174;2024-03-02T03:06:47;5.00;1.00
6178;DHT22;3122;48.208;11.174;2024-03-02T03:11:48;5.00;1.00
6178;DHT22;3122;48.208;11.174;2024-03-02T03:16:50;5.00;1.00
6178;DHT22;3122;48.208;11.174;2024-03-02T03:21:51;5.00;1.00
6178;DHT22;3122;48.208;11.174;2024-03-02T03:26:51;4.90;1.00
6178;DHT22;3122;48.208;11.174;2024-03-02T03:31:52;5.00;1.00
6178;DHT22;3122;48.208;11.174;2024-03-02T03:36:53;5.00;1.00
6178;DHT22;3122;48.208;11.174;2024-03-02T03:41:53;5.00;1.00
6178;DHT22;3122;48.208;11.174;2024-03-02T03:46:54;5.00;1.00
6178;DHT22;3122;48.208;11.174;2024-03-02T03:51:55;5.00;1.00
6178;DHT22;3122;48.208;11.174;2024-03-02T03:56:55;5.00;1.00
6178;DHT22;3122;48.208;11.174;2024-03-02T04:01:56;5.00;1.00
6178;DHT22;3122;48.208;11.174;2024-03-02T04:06:57;5.00;1.00
6178;DHT22;3122;48.208;11.174;2024-03-02T04:11:57;4.90;1.00
6178;DHT22;3122;48.208;11.174;2024-03-02T04:16:58;5.00;1.00
6178;DHT22;3122;48.208;11.174;2024-03-02T04:21:58;4.90;1.00
6178;DHT22;3122;48.208;11.174;2024-03-02T04:26:59;5.00;1.00
6178;DHT22;3122;48.208;11.174;2024-03-02T04:31:59;5.00;1.00
6178;DHT22;3122;48.208;11.174;2024-03-02T04:37:00;5.00;1.00
6178;DHT22;3122;48.208;11.174;2024-03-02T04:42:01;5.00;1.00
6178;DHT22;3122;48.208;11.174;2024-03-02T04:47:01;5.00;1.00
6178;DHT22;3122;48.208;11.174;2024-03-02T04:52:02;5.00;1.00
6178;DHT22;3122;48.208;11.174;2024-03-02T04:57:03;5.00;1.00
6178;DHT22;3122;48.208;11.174;2024-03-02T05:02:03;4.90;1.00
6178;DHT22;3122;48.208;11.174;2024-03-02T05:07:04;4.90;1.00
6178;DHT22;3122;48.208;11.174;2024-03-02T05:12:05;4.90;1.00
6178;DHT22;3122;48.208;11.174;2024-03-02T05:17:17;4.90;1.00
6178;DHT22;3122;48.208;11.174;2024-03-02T05:22:18;4.80;1.00
6178;DHT22;3122;48.208;11.174;2024-03-02T05:27:19;4.70;1.00
6178;DHT22;3122;48.208;11.174;2024-03-02T05:32:19;4.80;1.00
6178;DHT22;3122;48.208;11.174;2024-03-02T05:37:20;4.70;1.00
6178;DHT22;3122;48.208;11.174;2024-03-02T05:42:20;4.70;1.00
6178;DHT22;3122;48.208;11.174;2024-03-02T05:47:21;4.80;1.00
6178;DHT22;3122;48.208;11.174;2024-03-02T05:52:22;4.80;1.00
6178;DHT22;3122;48.208;11.174;2024-03-02T05:57:22;4.80;1.00
6178;DHT22;3122;48.208;11.174;2024-03-02T06:02:39;4.80;1.00
6178;DHT22;3122;48.208;11.174;2024-03-02T06:07:41;4.70;1.00
6178;DHT22;3122;48.208;11.174;2024-03-02T06:12:41;4.70;1.00
6178;DHT22;3122;48.208;11.174;2024-03-02T06:17:42;4.70;1.00
6178;DHT22;3122;48.208;11.174;2024-03-02T06:22:42;4.60;1.00
6178;DHT22;3122;48.208;11.174;2024-03-02T06:27:43;4.60;1.00
6178;DHT22;3122;48.208;11.174;2024-03-02T06:32:43;4.50;1.00
6178;DHT22;3122;48.208;11.174;2024-03-02T06:37:44;4.50;1.00
6178;DHT22;3122;48.208;11.174;2024-03-02T06:42:44;4.40;1.00
6178;DHT22;3122;48.208;11.174;2024-03-02T06:47:45;4.40;1.00
6178;DHT22;3122;48.208;11.174;2024-03-02T06:52:46;4.40;1.00
6178;DHT22;3122;48.208;11.174;2024-03-02T06:57:46;4.40;1.00
6178;DHT22;3122;48.208;11.174;2024-03-02T07:02:47;4.40;1.00
6178;DHT22;3122;48.208;11.174;2024-03-02T07:07:47;4.50;1.00
6178;DHT22;3122;48.208;11.174;2024-03-02T07:12:48;4.50;1.00
6178;DHT22;3122;48.208;11.174;2024-03-02T07:17:48;4.60;1.00
6178;DHT22;3122;48.208;11.174;2024-03-02T07:22:49;4.80;1.00
6178;DHT22;3122;48.208;11.174;2024-03-02T07:27:50;5.00;1.00
6178;DHT22;3122;48.208;11.174;2024-03-02T07:32:51;5.10;1.00
6178;DHT22;3122;48.208;11.174;2024-03-02T07:37:51;5.20;1.00
6178;DHT22;3122;48.208;11.174;2024-03-02T07:42:52;5.30;1.00
6178;DHT22;3122;48.208;11.174;2024-03-02T07:47:52;5.40;1.00
6178;DHT22;3122;48.208;11.174;2024-03-02T07:52:53;5.60;1.00
6178;DHT22;3122;48.208;11.174;2024-03-02T07:57:54;5.70;1.00
6178;DHT22;3122;48.208;11.174;2024-03-02T08:02:56;5.70;1.00
6178;DHT22;3122;48.208;11.174;2024-03-02T08:07:56;5.70;1.00
6178;DHT22;3122;48.208;11.174;2024-03-02T08:12:57;5.70;1.00
6178;DHT22;3122;48.208;11.174;2024-03-02T08:17:58;5.70;1.00
6178;DHT22;3122;48.208;11.174;2024-03-02T08:22:58;5.80;1.00
6178;DHT22;3122;48.208;11.174;2024-03-02T08:27:59;6.00;1.00
6178;DHT22;3122;48.208;11.174;2024-03-02T08:33:00;6.20;1.00
6178;DHT22;3122;48.208;11.174;2024-03-02T08:38:00;6.30;1.00
6178;DHT22;3122;48.208;11.174;2024-03-02T08:43:01;6.50;1.00
6178;DHT22;3122;48.208;11.174;2024-03-02T08:48:02;6.70;1.00
6178;DHT22;3122;48.208;11.174;2024-03-02T08:53:03;6.80;1.00
6178;DHT22;3122;48.208;11.174;2024-03-02T08:58:04;7.00;1.00
6178;DHT22;3122;48.208;11.174;2024-03-02T09:03:04;7.00;1.00
6178;DHT22;3122;48.208;11.174;2024-03-02T09:08:05;7.20;1.00
6178;DHT22;3122;48.208;11.174;2024-03-02T09:13:06;7.40;1.00
6178;DHT22;3122;48.208;11.174;2024-03-02T09:18:06;7.50;1.00
6178;DHT22;3122;48.208;11.174;2024-03-02T09:23:07;7.60;1.00
6178;DHT22;3122;48.208;11.174;2024-03-02T09:28:08;7.70;1.00
6178;DHT22;3122;48.208;11.174;2024-03-02T09:33:08;7.80;1.00
6178;DHT22;3122;48.208;11.174;2024-03-02T09:38:09;7.80;1.00
6178;DHT22;3122;48.208;11.174;2024-03-02T09:43:10;7.70;1.00
6178;DHT22;3122;48.208;11.174;2024-03-02T09:48:10;7.80;1.00
6178;DHT22;3122;48.208;11.174;2024-03-02T09:53:12;7.90;1.00
6178;DHT22;3122;48.208;11.174;2024-03-02T09:58:12;8.10;1.00
6178;DHT22;3122;48.208;11.174;2024-03-02T10:03:13;8.30;1.00
6178;DHT22;3122;48.208;11.174;2024-03-02T10:08:14;8.40;1.00
6178;DHT22;3122;48.208;11.174;2024-03-02T10:13:14;8.50;1.00
6178;DHT22;3122;48.208;11.174;2024-03-02T10:18:26;8.50;1.00
6178;DHT22;3122;48.208;11.174;2024-03-02T10:23:27;8.70;1.00
6178;DHT22;3122;48.208;11.174;2024-03-02T10:28:27;8.70;1.00
6178;DHT22;3122;48.208;11.174;2024-03-02T10:33:28;8.90;1.00
6178;DHT22;3122;48.208;11.174;2024-03-02T10:38:29;8.80;1.00
6178;DHT22;3122;48.208;11.174;2024-03-02T10:43:29;8.90;1.00
6178;DHT22;3122;48.208;11.174;2024-03-02T10:48:31;9.00;1.00
6178;DHT22;3122;48.208;11.174;2024-03-02T10:53:33;9.00;1.00
6178;DHT22;3122;48.208;11.174;2024-03-02T10:58:33;9.00;1.00
6178;DHT22;3122;48.208;11.174;2024-03-02T11:03:36;8.90;1.00
6178;DHT22;3122;48.208;11.174;2024-03-02T11:08:40;9.00;1.00
6178;DHT22;3122;48.208;11.174;2024-03-02T11:13:47;9.10;1.00
6178;DHT22;3122;48.208;11.174;2024-03-02T11:18:49;9.10;1.00
6178;DHT22;3122;48.208;11.174;2024-03-02T11:23:50;9.20;1.00
6178;DHT22;3122;48.208;11.174;2024-03-02T11:28:50;9.20;1.00
6178;DHT22;3122;48.208;11.174;2024-03-02T11:33:51;9.30;1.00
6178;DHT22;3122;48.208;11.174;2024-03-02T11:38:52;9.20;1.00
6178;DHT22;3122;48.208;11.174;2024-03-02T11:43:54;9.30;1.00
6178;DHT22;3122;48.208;11.174;2024-03-02T11:48:54;9.40;1.00
6178;DHT22;3122;48.208;11.174;2024-03-02T11:53:55;9.40;1.00
6178;DHT22;3122;48.208;11.174;2024-03-02T11:58:56;9.40;1.00
6178;DHT22;3122;48.208;11.174;2024-03-02T12:03:58;9.50;1.00
6178;DHT22;3122;48.208;11.174;2024-03-02T12:08:58;9.60;1.00
6178;DHT22;3122;48.208;11.174;2024-03-02T12:13:59;9.80;1.00
6178;DHT22;3122;48.208;11.174;2024-03-02T12:18:59;9.90;1.00
6178;DHT22;3122;48.208;11.174;2024-03-02T12:24:00;9.90;1.00
6178;DHT22;3122;48.208;11.174;2024-03-02T12:29:01;10.00;1.00
6178;DHT22;3122;48.208;11.174;2024-03-02T12:34:02;10.10;1.00
6178;DHT22;3122;48.208;11.174;2024-03-02T12:39:03;10.20;1.00
6178;DHT22;3122;48.208;11.174;2024-03-02T12:44:04;10.30;1.00
6178;DHT22;3122;48.208;11.174;2024-03-02T12:49:07;10.30;1.00
6178;DHT22;3122;48.208;11.174;2024-03-02T12:54:08;10.40;1.00
6178;DHT22;3122;48.208;11.174;2024-03-02T12:59:08;10.40;1.00
6178;DHT22;3122;48.208;11.174;2024-03-02T13:04:10;10.70;1.00
6178;DHT22;3122;48.208;11.174;2024-03-02T13:09:11;10.70;1.00
6178;DHT22;3122;48.208;11.174;2024-03-02T13:14:15;10.70;1.00
6178;DHT22;3122;48.208;11.174;2024-03-02T13:19:15;10.80;1.00
6178;DHT22;3122;48.208;11.174;2024-03-02T13:24:19;10.80;1.00
6178;DHT22;3122;48.208;11.174;2024-03-02T13:29:20;10.80;1.00
6178;DHT22;3122;48.208;11.174;2024-03-02T13:34:21;10.80;1.00
6178;DHT22;3122;48.208;11.174;2024-03-02T13:39:22;10.80;1.00
6178;DHT22;3122;48.208;11.174;2024-03-02T13:44:23;10.70;1.00
6178;DHT22;3122;48.208;11.174;2024-03-02T13:49:24;10.70;1.00
6178;DHT22;3122;48.208;11.174;2024-03-02T13:54:25;10.70;1.00
6178;DHT22;3122;48.208;11.174;2024-03-02T13:59:26;10.80;1.00
6178;DHT22;3122;48.208;11.174;2024-03-02T14:04:27;10.90;1.00
6178;DHT22;3122;48.208;11.174;2024-03-02T14:09:28;10.80;1.00
6178;DHT22;3122;48.208;11.174;2024-03-02T14:14:29;10.90;1.00
6178;DHT22;3122;48.208;11.174;2024-03-02T14:19:30;10.90;1.00
6178;DHT22;3122;48.208;11.174;2024-03-02T14:24:30;10.90;1.00
6178;DHT22;3122;48.208;11.174;2024-03-02T14:29:31;10.80;1.00
6178;DHT22;3122;48.208;11.174;2024-03-02T14:34:33;10.80;1.00
6178;DHT22;3122;48.208;11.174;2024-03-02T14:39:34;10.70;1.00
6178;DHT22;3122;48.208;11.174;2024-03-02T14:44:35;10.70;1.00
6178;DHT22;3122;48.208;11.174;2024-03-02T14:49:36;10.70;1.00
6178;DHT22;3122;48.208;11.174;2024-03-02T14:54:40;10.70;1.00
6178;DHT22;3122;48.208;11.174;2024-03-02T14:59:42;10.70;1.00
6178;DHT22;3122;48.208;11.174;2024-03-02T15:04:42;10.60;1.00
6178;DHT22;3122;48.208;11.174;2024-03-02T15:09:45;10.50;1.00
6178;DHT22;3122;48.208;11.174;2024-03-02T15:14:46;10.50;1.00
6178;DHT22;3122;48.208;11.174;2024-03-02T15:19:47;10.50;1.00
6178;DHT22;3122;48.208;11.174;2024-03-02T15:24:48;10.50;1.00
6178;DHT22;3122;48.208;11.174;2024-03-02T15:29:49;10.50;1.00
6178;DHT22;3122;48.208;11.174;2024-03-02T15:34:50;10.50;1.00
6178;DHT22;3122;48.208;11.174;2024-03-02T15:39:52;10.30;1.00
6178;DHT22;3122;48.208;11.174;2024-03-02T15:44:52;10.30;1.00
6178;DHT22;3122;48.208;11.174;2024-03-02T15:49:53;10.20;1.00
6178;DHT22;3122;48.208;11.174;2024-03-02T15:54:54;10.10;1.00
6178;DHT22;3122;48.208;11.174;2024-03-02T15:59:55;9.90;1.00
6178;DHT22;3122;48.208;11.174;2024-03-02T16:04:55;9.80;1.00
6178;DHT22;3122;48.208;11.174;2024-03-02T16:09:56;9.70;1.00
6178;DHT22;3122;48.208;11.174;2024-03-02T16:14:56;9.70;1.00
6178;DHT22;3122;48.208;11.174;2024-03-02T16:19:57;9.70;1.00
6178;DHT22;3122;48.208;11.174;2024-03-02T16:24:58;9.50;1.00
6178;DHT22;3122;48.208;11.174;2024-03-02T16:29:59;9.40;1.00
6178;DHT22;3122;48.208;11.174;2024-03-02T16:35:00;9.30;1.00
6178;DHT22;3122;48.208;11.174;2024-03-02T16:40:00;9.40;1.00
6178;DHT22;3122;48.208;11.174;2024-03-02T16:45:01;9.20;1.00
6178;DHT22;3122;48.208;11.174;2024-03-02T16:50:01;9.20;1.00
6178;DHT22;3122;48.208;11.174;2024-03-02T16:55:03;9.10;1.00
6178;DHT22;3122;48.208;11.174;2024-03-02T17:00:05;9.00;1.00
6178;DHT22;3122;48.208;11.174;2024-03-02T17:05:08;8.90;1.00
6178;DHT22;3122;48.208;11.174;2024-03-02T17:10:09;8.80;1.00
6178;DHT22;3122;48.208;11.174;2024-03-02T17:15:09;8.60;1.00
6178;DHT22;3122;48.208;11.174;2024-03-02T17:20:10;8.40;1.00
6178;DHT22;3122;48.208;11.174;2024-03-02T17:25:14;8.40;1.00
6178;DHT22;3122;48.208;11.174;2024-03-02T17:30:14;8.30;1.00
6178;DHT22;3122;48.208;11.174;2024-03-02T17:35:15;8.30;1.00
6178;DHT22;3122;48.208;11.174;2024-03-02T17:40:15;8.20;1.00
6178;DHT22;3122;48.208;11.174;2024-03-02T17:45:16;8.10;1.00
6178;DHT22;3122;48.208;11.174;2024-03-02T17:50:16;8.10;1.00
6178;DHT22;3122;48.208;11.174;2024-03-02T17:55:17;8.00;1.00
6178;DHT22;3122;48.208;11.174;2024-03-02T18:00:18;7.90;1.00
6178;DHT22;3122;48.208;11.174;2024-03-02T18:05:20;7.80;1.00
6178;DHT22;3122;48.208;11.174;2024-03-02T18:10:21;7.70;1.00
6178;DHT22;3122;48.208;11.174;2024-03-02T18:15:22;7.60;1.00
6178;DHT22;3122;48.208;11.174;2024-03-02T18:20:22;7.60;1.00
6178;DHT22;3122;48.208;11.174;2024-03-02T18:25:23;7.60;1.00
6178;DHT22;3122;48.208;11.174;2024-03-02T18:30:23;7.50;1.00
6178;DHT22;3122;48.208;11.174;2024-03-02T18:35:24;7.40;1.00
6178;DHT22;3122;48.208;11.174;2024-03-02T18:40:24;7.40;1.00
6178;DHT22;3122;48.208;11.174;2024-03-02T18:45:25;7.30;1.00
6178;DHT22;3122;48.208;11.174;2024-03-02T18:50:26;7.40;1.00
6178;DHT22;3122;48.208;11.174;2024-03-02T18:55:26;7.30;1.00
6178;DHT22;3122;48.208;11.174;2024-03-02T19:00:27;7.20;1.00
6178;DHT22;3122;48.208;11.174;2024-03-02T19:05:28;7.10;1.00
6178;DHT22;3122;48.208;11.174;2024-03-02T19:10:29;7.10;1.00
6178;DHT22;3122;48.208;11.174;2024-03-02T19:15:30;7.00;1.00
6178;DHT22;3122;48.208;11.174;2024-03-02T19:20:30;6.90;1.00
6178;DHT22;3122;48.208;11.174;2024-03-02T19:25:31;6.90;1.00
6178;DHT22;3122;48.208;11.174;2024-03-02T19:30:32;6.80;1.00
6178;DHT22;3122;48.208;11.174;2024-03-02T19:35:32;6.80;1.00
6178;DHT22;3122;48.208;11.174;2024-03-02T19:40:33;6.70;1.00
6178;DHT22;3122;48.208;11.174;2024-03-02T19:45:33;6.60;1.00
6178;DHT22;3122;48.208;11.174;2024-03-02T19:50:34;6.70;1.00
6178;DHT22;3122;48.208;11.174;2024-03-02T19:55:36;6.60;1.00
6178;DHT22;3122;48.208;11.174;2024-03-02T20:00:38;6.60;1.00
6178;DHT22;3122;48.208;11.174;2024-03-02T20:05:38;6.50;1.00
6178;DHT22;3122;48.208;11.174;2024-03-02T20:10:39;6.40;1.00
6178;DHT22;3122;48.208;11.174;2024-03-02T20:15:39;6.30;1.00
6178;DHT22;3122;48.208;11.174;2024-03-02T20:20:40;6.20;1.00
6178;DHT22;3122;48.208;11.174;2024-03-02T20:25:41;6.20;1.00
6178;DHT22;3122;48.208;11.174;2024-03-02T20:30:42;6.20;1.00
6178;DHT22;3122;48.208;11.174;2024-03-02T20:35:43;6.10;1.00
6178;DHT22;3122;48.208;11.174;2024-03-02T20:40:43;6.10;1.00
6178;DHT22;3122;48.208;11.174;2024-03-02T20:45:45;6.00;1.00
6178;DHT22;3122;48.208;11.174;2024-03-02T20:50:45;6.00;1.00
6178;DHT22;3122;48.208;11.174;2024-03-02T20:55:46;6.00;1.00
6178;DHT22;3122;48.208;11.174;2024-03-02T21:00:47;5.90;1.00
6178;DHT22;3122;48.208;11.174;2024-03-02T21:05:48;5.80;1.00
6178;DHT22;3122;48.208;11.174;2024-03-02T21:10:48;5.70;1.00
6178;DHT22;3122;48.208;11.174;2024-03-02T21:15:49;5.70;1.00
6178;DHT22;3122;48.208;11.174;2024-03-02T21:20:49;5.70;1.00
6178;DHT22;3122;48.208;11.174;2024-03-02T21:25:50;5.60;1.00
6178;DHT22;3122;48.208;11.174;2024-03-02T21:30:50;5.50;1.00
6178;DHT22;3122;48.208;11.174;2024-03-02T21:35:51;5.50;1.00
6178;DHT22;3122;48.208;11.174;2024-03-02T21:40:51;5.40;1.00
6178;DHT22;3122;48.208;11.174;2024-03-02T21:45:52;5.40;1.00
6178;DHT22;3122;48.208;11.174;2024-03-02T21:50:52;5.30;1.00
6178;DHT22;3122;48.208;11.174;2024-03-02T21:55:53;5.30;1.00
6178;DHT22;3122;48.208;11.174;2024-03-02T22:00:54;5.30;1.00
6178;DHT22;3122;48.208;11.174;2024-03-02T22:05:55;5.20;1.00
6178;DHT22;3122;48.208;11.174;2024-03-02T22:10:55;5.10;1.00
6178;DHT22;3122;48.208;11.174;2024-03-02T22:15:56;5.00;1.00
6178;DHT22;3122;48.208;11.174;2024-03-02T22:20:56;5.00;1.00
6178;DHT22;3122;48.208;11.174;2024-03-02T22:26:00;5.00;1.00
6178;DHT22;3122;48.208;11.174;2024-03-02T22:31:00;4.90;1.00
6178;DHT22;3122;48.208;11.174;2024-03-02T22:36:01;4.80;1.00
6178;DHT22;3122;48.208;11.174;2024-03-02T22:41:02;4.90;1.00
6178;DHT22;3122;48.208;11.174;2024-03-02T22:46:03;4.70;1.00
6178;DHT22;3122;48.208;11.174;2024-03-02T22:51:04;4.60;1.00
6178;DHT22;3122;48.208;11.174;2024-03-02T22:56:04;4.60;1.00
6178;DHT22;3122;48.208;11.174;2024-03-02T23:01:05;4.70;1.00
6178;DHT22;3122;48.208;11.174;2024-03-02T23:06:09;4.70;1.00
6178;DHT22;3122;48.208;11.174;2024-03-02T23:11:09;4.50;1.00
6178;DHT22;3122;48.208;11.174;2024-03-02T23:16:11;4.40;1.00
6178;DHT22;3122;48.208;11.174;2024-03-02T23:21:12;4.50;1.00
6178;DHT22;3122;48.208;11.174;2024-03-02T23:26:12;4.50;1.00
6178;DHT22;3122;48.208;11.174;2024-03-02T23:31:13;4.50;1.00
6178;DHT22;3122;48.208;11.174;2024-03-02T23:36:15;4.40;1.00
6178;DHT22;3122;48.208;11.174;2024-03-02T23:41:16;4.20;1.00
6178;DHT22;3122;48.208;11.174;2024-03-02T23:46:16;4.20;1.00
6178;DHT22;3122;48.208;11.174;2024-03-02T23:51:17;4.20;1.00
6178;DHT22;3122;48.208;11.174;2024-03-02T23:56:18;4.20;1.00
